sensor_id;sensor_type;location;lat;lon;timestamp;temperature;humidity
69208;SHT31;56321;47.662;8.878;2022-09-30T00:01:40;12.41;80.21
69208;SHT31;56321;47.662;8.878;2022-09-30T00:04:09;12.39;80.18
69208;SHT31;56321;47.662;8.878;2022-09-30T00:06:37;12.39;80.06
69208;SHT31;56321;47.662;8.878;2022-09-30T00:09:02;12.39;80.05
69208;SHT31;56321;47.662;8.878;2022-09-30T00:11:30;12.36;79.93
69208;SHT31;56321;47.662;8.878;2022-09-30T00:13:57;12.35;79.86
69208;SHT31;56321;47.662;8.878;2022-09-30T00:16:25;12.35;79.88
69208;SHT31;56321;47.662;8.878;2022-09-30T00:18:53;12.36;79.87
69208;SHT31;56321;47.662;8.878;2022-09-30T00:21:19;12.34;79.98
69208;SHT31;56321;47.662;8.878;2022-09-30T00:23:45;12.32;79.94
69208;SHT31;56321;47.662;8.878;2022-09-30T00:26:13;12.32;79.98
69208;SHT31;56321;47.662;8.878;2022-09-30T00:28:40;12.32;80.06
69208;SHT31;56321;47.662;8.878;2022-09-30T00:31:09;12.31;80.06
69208;SHT31;56321;47.662;8.878;2022-09-30T00:33:35;12.32;80.08
69208;SHT31;56321;47.662;8.878;2022-09-30T00:36:01;12.34;80.15
69208;SHT31;56321;47.662;8.878;2022-09-30T00:38:27;12.31;80.27
69208;SHT31;56321;47.662;8.878;2022-09-30T00:40:52;12.34;80.18
69208;SHT31;56321;47.662;8.878;2022-09-30T00:46:15;12.34;80.18
69208;SHT31;56321;47.662;8.878;2022-09-30T00:48:41;12.35;80.20
69208;SHT31;56321;47.662;8.878;2022-09-30T00:51:07;12.36;80.23
69208;SHT31;56321;47.662;8.878;2022-09-30T00:56:16;12.35;80.20
69208;SHT31;56321;47.662;8.878;2022-09-30T00:59:16;12.35;80.22
69208;SHT31;56321;47.662;8.878;2022-09-30T01:01:40;12.38;80.18
69208;SHT31;56321;47.662;8.878;2022-09-30T01:04:11;12.35;80.20
69208;SHT31;56321;47.662;8.878;2022-09-30T01:06:38;12.38;80.18
69208;SHT31;56321;47.662;8.878;2022-09-30T01:09:03;12.38;80.20
69208;SHT31;56321;47.662;8.878;2022-09-30T01:11:29;12.38;80.29
69208;SHT31;56321;47.662;8.878;2022-09-30T01:13:59;12.35;80.18
69208;SHT31;56321;47.662;8.878;2022-09-30T01:27:52;12.34;80.18
69208;SHT31;56321;47.662;8.878;2022-09-30T01:36:26;12.29;80.04
69208;SHT31;56321;47.662;8.878;2022-09-30T01:44:35;12.25;79.94
69208;SHT31;56321;47.662;8.878;2022-09-30T01:47:17;12.25;80.00
69208;SHT31;56321;47.662;8.878;2022-09-30T01:50:35;12.25;80.05
69208;SHT31;56321;47.662;8.878;2022-09-30T01:52:37;12.25;80.11
69208;SHT31;56321;47.662;8.878;2022-09-30T01:55:20;12.24;80.14
69208;SHT31;56321;47.662;8.878;2022-09-30T01:58:00;12.25;80.03
69208;SHT31;56321;47.662;8.878;2022-09-30T02:00:30;12.22;80.13
69208;SHT31;56321;47.662;8.878;2022-09-30T02:08:57;12.22;80.13
69208;SHT31;56321;47.662;8.878;2022-09-30T02:11:27;12.22;80.20
69208;SHT31;56321;47.662;8.878;2022-09-30T02:16:27;12.24;80.26
69208;SHT31;56321;47.662;8.878;2022-09-30T02:18:59;12.21;80.29
69208;SHT31;56321;47.662;8.878;2022-09-30T02:21:31;12.24;80.30
69208;SHT31;56321;47.662;8.878;2022-09-30T02:24:02;12.24;80.32
69208;SHT31;56321;47.662;8.878;2022-09-30T02:26:35;12.24;80.32
69208;SHT31;56321;47.662;8.878;2022-09-30T02:29:09;12.25;80.38
69208;SHT31;56321;47.662;8.878;2022-09-30T02:31:38;12.27;80.39
69208;SHT31;56321;47.662;8.878;2022-09-30T02:34:20;12.25;80.35
69208;SHT31;56321;47.662;8.878;2022-09-30T02:37:02;12.27;80.34
69208;SHT31;56321;47.662;8.878;2022-09-30T02:42:25;12.22;80.36
69208;SHT31;56321;47.662;8.878;2022-09-30T02:44:54;12.25;80.29
69208;SHT31;56321;47.662;8.878;2022-09-30T02:53:30;12.28;80.24
69208;SHT31;56321;47.662;8.878;2022-09-30T02:55:38;12.28;80.24
69208;SHT31;56321;47.662;8.878;2022-09-30T02:58:15;12.28;80.16
69208;SHT31;56321;47.662;8.878;2022-09-30T03:00:41;12.28;80.19
69208;SHT31;56321;47.662;8.878;2022-09-30T03:03:24;12.28;80.39
69208;SHT31;56321;47.662;8.878;2022-09-30T03:05:51;12.29;80.33
69208;SHT31;56321;47.662;8.878;2022-09-30T03:08:16;12.29;80.32
69208;SHT31;56321;47.662;8.878;2022-09-30T03:10:43;12.29;80.25
69208;SHT31;56321;47.662;8.878;2022-09-30T03:27:34;12.17;80.17
69208;SHT31;56321;47.662;8.878;2022-09-30T03:30:14;12.18;80.09
69208;SHT31;56321;47.662;8.878;2022-09-30T03:33:05;12.20;80.13
69208;SHT31;56321;47.662;8.878;2022-09-30T03:35:45;12.16;80.19
69208;SHT31;56321;47.662;8.878;2022-09-30T03:46:29;12.18;80.31
69208;SHT31;56321;47.662;8.878;2022-09-30T03:48:58;12.18;80.31
69208;SHT31;56321;47.662;8.878;2022-09-30T03:51:26;12.16;80.37
69208;SHT31;56321;47.662;8.878;2022-09-30T03:53:53;12.14;80.40
69208;SHT31;56321;47.662;8.878;2022-09-30T03:56:29;12.16;80.43
69208;SHT31;56321;47.662;8.878;2022-09-30T03:58:56;12.20;80.34
69208;SHT31;56321;47.662;8.878;2022-09-30T04:01:22;12.17;80.37
69208;SHT31;56321;47.662;8.878;2022-09-30T04:03:52;12.17;80.45
69208;SHT31;56321;47.662;8.878;2022-09-30T04:06:20;12.16;80.34
69208;SHT31;56321;47.662;8.878;2022-09-30T04:08:45;12.17;80.36
69208;SHT31;56321;47.662;8.878;2022-09-30T04:11:11;12.20;80.36
69208;SHT31;56321;47.662;8.878;2022-09-30T04:13:37;12.18;80.31
69208;SHT31;56321;47.662;8.878;2022-09-30T04:16:03;12.16;80.25
69208;SHT31;56321;47.662;8.878;2022-09-30T04:18:28;12.16;80.21
69208;SHT31;56321;47.662;8.878;2022-09-30T04:20:56;12.14;80.25
69208;SHT31;56321;47.662;8.878;2022-09-30T04:23:21;12.14;80.25
69208;SHT31;56321;47.662;8.878;2022-09-30T04:25:53;12.16;80.22
69208;SHT31;56321;47.662;8.878;2022-09-30T04:28:20;12.14;80.18
69208;SHT31;56321;47.662;8.878;2022-09-30T04:30:45;12.17;80.18
69208;SHT31;56321;47.662;8.878;2022-09-30T04:33:10;12.14;80.25
69208;SHT31;56321;47.662;8.878;2022-09-30T04:35:37;12.17;80.35
69208;SHT31;56321;47.662;8.878;2022-09-30T04:38:03;12.14;80.39
69208;SHT31;56321;47.662;8.878;2022-09-30T04:40:34;12.17;80.43
69208;SHT31;56321;47.662;8.878;2022-09-30T04:42:59;12.14;80.44
69208;SHT31;56321;47.662;8.878;2022-09-30T04:45:25;12.16;80.48
69208;SHT31;56321;47.662;8.878;2022-09-30T04:47:50;12.14;80.42
69208;SHT31;56321;47.662;8.878;2022-09-30T04:50:16;12.13;80.42
69208;SHT31;56321;47.662;8.878;2022-09-30T04:52:42;12.16;80.42
69208;SHT31;56321;47.662;8.878;2022-09-30T04:55:08;12.14;80.54
69208;SHT31;56321;47.662;8.878;2022-09-30T04:57:34;12.16;80.61
69208;SHT31;56321;47.662;8.878;2022-09-30T04:59:59;12.17;80.60
69208;SHT31;56321;47.662;8.878;2022-09-30T05:02:25;12.20;80.59
69208;SHT31;56321;47.662;8.878;2022-09-30T05:04:50;12.18;80.52
69208;SHT31;56321;47.662;8.878;2022-09-30T05:07:15;12.18;80.56
69208;SHT31;56321;47.662;8.878;2022-09-30T05:09:41;12.20;80.56
69208;SHT31;56321;47.662;8.878;2022-09-30T05:12:06;12.16;80.50
69208;SHT31;56321;47.662;8.878;2022-09-30T05:14:32;12.16;80.48
69208;SHT31;56321;47.662;8.878;2022-09-30T05:16:57;12.17;80.46
69208;SHT31;56321;47.662;8.878;2022-09-30T05:19:23;12.16;80.38
69208;SHT31;56321;47.662;8.878;2022-09-30T05:21:48;12.16;80.37
69208;SHT31;56321;47.662;8.878;2022-09-30T05:24:14;12.16;80.38
69208;SHT31;56321;47.662;8.878;2022-09-30T05:26:39;12.14;80.40
69208;SHT31;56321;47.662;8.878;2022-09-30T05:29:05;12.16;80.45
69208;SHT31;56321;47.662;8.878;2022-09-30T05:31:31;12.16;80.49
69208;SHT31;56321;47.662;8.878;2022-09-30T05:33:57;12.14;80.44
69208;SHT31;56321;47.662;8.878;2022-09-30T05:36:22;12.13;80.45
69208;SHT31;56321;47.662;8.878;2022-09-30T05:38:51;12.11;80.45
69208;SHT31;56321;47.662;8.878;2022-09-30T05:41:17;12.11;80.33
69208;SHT31;56321;47.662;8.878;2022-09-30T05:43:45;12.13;80.24
69208;SHT31;56321;47.662;8.878;2022-09-30T05:46:18;12.11;80.31
69208;SHT31;56321;47.662;8.878;2022-09-30T05:48:44;12.14;80.33
69208;SHT31;56321;47.662;8.878;2022-09-30T05:51:10;12.11;80.21
69208;SHT31;56321;47.662;8.878;2022-09-30T05:53:36;12.11;80.14
69208;SHT31;56321;47.662;8.878;2022-09-30T05:56:03;12.11;80.09
69208;SHT31;56321;47.662;8.878;2022-09-30T05:58:29;12.11;80.13
69208;SHT31;56321;47.662;8.878;2022-09-30T06:00:55;12.11;80.16
69208;SHT31;56321;47.662;8.878;2022-09-30T06:03:20;12.11;80.14
69208;SHT31;56321;47.662;8.878;2022-09-30T06:05:45;12.13;80.24
69208;SHT31;56321;47.662;8.878;2022-09-30T06:08:12;12.14;80.18
69208;SHT31;56321;47.662;8.878;2022-09-30T06:10:42;12.14;80.21
69208;SHT31;56321;47.662;8.878;2022-09-30T06:13:07;12.17;80.06
69208;SHT31;56321;47.662;8.878;2022-09-30T06:15:33;12.16;80.07
69208;SHT31;56321;47.662;8.878;2022-09-30T06:18:00;12.18;79.94
69208;SHT31;56321;47.662;8.878;2022-09-30T06:20:26;12.18;80.00
69208;SHT31;56321;47.662;8.878;2022-09-30T06:22:51;12.20;80.18
69208;SHT31;56321;47.662;8.878;2022-09-30T06:25:17;12.24;80.28
69208;SHT31;56321;47.662;8.878;2022-09-30T06:27:45;12.25;80.29
69208;SHT31;56321;47.662;8.878;2022-09-30T06:30:12;12.25;80.32
69208;SHT31;56321;47.662;8.878;2022-09-30T06:32:37;12.28;80.31
69208;SHT31;56321;47.662;8.878;2022-09-30T06:35:03;12.32;80.28
69208;SHT31;56321;47.662;8.878;2022-09-30T06:37:28;12.34;80.13
69208;SHT31;56321;47.662;8.878;2022-09-30T06:39:54;12.34;80.00
69208;SHT31;56321;47.662;8.878;2022-09-30T06:42:20;12.35;80.17
69208;SHT31;56321;47.662;8.878;2022-09-30T06:44:47;12.38;80.24
69208;SHT31;56321;47.662;8.878;2022-09-30T06:47:13;12.41;80.29
69208;SHT31;56321;47.662;8.878;2022-09-30T06:49:38;12.44;80.32
69208;SHT31;56321;47.662;8.878;2022-09-30T06:52:04;12.44;80.19
69208;SHT31;56321;47.662;8.878;2022-09-30T06:54:29;12.45;80.25
69208;SHT31;56321;47.662;8.878;2022-09-30T06:56:55;12.46;80.10
69208;SHT31;56321;47.662;8.878;2022-09-30T06:59:25;12.46;79.89
69208;SHT31;56321;47.662;8.878;2022-09-30T07:01:51;12.49;79.80
69208;SHT31;56321;47.662;8.878;2022-09-30T07:04:16;12.48;79.64
69208;SHT31;56321;47.662;8.878;2022-09-30T07:06:41;12.50;79.66
69208;SHT31;56321;47.662;8.878;2022-09-30T07:09:08;12.49;79.85
69208;SHT31;56321;47.662;8.878;2022-09-30T07:11:35;12.52;79.79
69208;SHT31;56321;47.662;8.878;2022-09-30T07:14:05;12.52;79.46
69208;SHT31;56321;47.662;8.878;2022-09-30T07:16:30;12.53;79.28
69208;SHT31;56321;47.662;8.878;2022-09-30T07:18:56;12.52;79.28
69208;SHT31;56321;47.662;8.878;2022-09-30T07:21:23;12.52;79.34
69208;SHT31;56321;47.662;8.878;2022-09-30T07:23:48;12.50;79.15
69208;SHT31;56321;47.662;8.878;2022-09-30T07:26:17;12.50;79.61
69208;SHT31;56321;47.662;8.878;2022-09-30T07:28:43;12.52;79.77
69208;SHT31;56321;47.662;8.878;2022-09-30T07:31:12;12.56;79.94
69208;SHT31;56321;47.662;8.878;2022-09-30T07:33:38;12.59;79.81
69208;SHT31;56321;47.662;8.878;2022-09-30T07:36:04;12.62;79.59
69208;SHT31;56321;47.662;8.878;2022-09-30T07:38:34;12.65;79.57
69208;SHT31;56321;47.662;8.878;2022-09-30T07:41:11;12.66;79.60
69208;SHT31;56321;47.662;8.878;2022-09-30T07:43:38;12.66;79.37
69208;SHT31;56321;47.662;8.878;2022-09-30T07:48:35;12.73;79.48
69208;SHT31;56321;47.662;8.878;2022-09-30T07:51:03;12.76;79.27
69208;SHT31;56321;47.662;8.878;2022-09-30T07:53:28;12.77;79.42
69208;SHT31;56321;47.662;8.878;2022-09-30T07:55:54;12.83;79.46
69208;SHT31;56321;47.662;8.878;2022-09-30T07:58:19;12.86;79.51
69208;SHT31;56321;47.662;8.878;2022-09-30T08:00:47;12.89;79.15
69208;SHT31;56321;47.662;8.878;2022-09-30T08:03:16;12.97;79.09
69208;SHT31;56321;47.662;8.878;2022-09-30T08:05:42;13.03;79.07
69208;SHT31;56321;47.662;8.878;2022-09-30T08:08:11;13.08;79.11
69208;SHT31;56321;47.662;8.878;2022-09-30T08:10:37;13.14;78.87
69208;SHT31;56321;47.662;8.878;2022-09-30T08:13:02;13.14;79.01
69208;SHT31;56321;47.662;8.878;2022-09-30T08:15:27;13.23;78.99
69208;SHT31;56321;47.662;8.878;2022-09-30T08:17:53;13.24;78.89
69208;SHT31;56321;47.662;8.878;2022-09-30T08:20:18;13.25;79.06
69208;SHT31;56321;47.662;8.878;2022-09-30T08:22:43;13.28;78.90
69208;SHT31;56321;47.662;8.878;2022-09-30T08:25:09;13.31;79.23
69208;SHT31;56321;47.662;8.878;2022-09-30T08:27:34;13.32;78.95
69208;SHT31;56321;47.662;8.878;2022-09-30T08:30:00;13.38;78.97
69208;SHT31;56321;47.662;8.878;2022-09-30T08:32:29;13.40;78.90
69208;SHT31;56321;47.662;8.878;2022-09-30T08:34:54;13.45;78.77
69208;SHT31;56321;47.662;8.878;2022-09-30T08:37:19;13.51;78.86
69208;SHT31;56321;47.662;8.878;2022-09-30T08:39:45;13.51;78.17
69208;SHT31;56321;47.662;8.878;2022-09-30T08:42:34;13.50;77.81
69208;SHT31;56321;47.662;8.878;2022-09-30T08:45:18;13.54;77.79
69208;SHT31;56321;47.662;8.878;2022-09-30T08:48:04;13.54;78.20
69208;SHT31;56321;47.662;8.878;2022-09-30T08:53:26;13.61;77.82
69208;SHT31;56321;47.662;8.878;2022-09-30T08:55:55;13.63;77.71
69208;SHT31;56321;47.662;8.878;2022-09-30T08:58:41;13.63;77.14
69208;SHT31;56321;47.662;8.878;2022-09-30T09:01:34;13.65;77.39
69208;SHT31;56321;47.662;8.878;2022-09-30T09:04:01;13.72;77.44
69208;SHT31;56321;47.662;8.878;2022-09-30T09:09:32;13.99;75.87
69208;SHT31;56321;47.662;8.878;2022-09-30T09:18:02;14.05;75.92
69208;SHT31;56321;47.662;8.878;2022-09-30T09:20:32;14.10;76.20
69208;SHT31;56321;47.662;8.878;2022-09-30T09:23:02;14.07;76.04
69208;SHT31;56321;47.662;8.878;2022-09-30T09:25:28;14.20;76.28
69208;SHT31;56321;47.662;8.878;2022-09-30T09:27:56;14.37;75.45
69208;SHT31;56321;47.662;8.878;2022-09-30T09:30:24;14.57;75.15
69208;SHT31;56321;47.662;8.878;2022-09-30T09:32:56;14.74;74.13
69208;SHT31;56321;47.662;8.878;2022-09-30T09:35:47;14.86;72.87
69208;SHT31;56321;47.662;8.878;2022-09-30T09:38:54;14.99;72.83
69208;SHT31;56321;47.662;8.878;2022-09-30T09:41:47;15.07;72.43
69208;SHT31;56321;47.662;8.878;2022-09-30T09:47:06;15.14;71.39
69208;SHT31;56321;47.662;8.878;2022-09-30T09:49:41;15.13;71.56
69208;SHT31;56321;47.662;8.878;2022-09-30T09:57:15;15.33;70.80
69208;SHT31;56321;47.662;8.878;2022-09-30T10:05:34;15.70;70.26
69208;SHT31;56321;47.662;8.878;2022-09-30T10:08:20;16.27;69.54
69208;SHT31;56321;47.662;8.878;2022-09-30T10:10:54;17.16;68.48
69208;SHT31;56321;47.662;8.878;2022-09-30T10:13:29;18.05;67.49
69208;SHT31;56321;47.662;8.878;2022-09-30T10:15:59;18.53;65.20
69208;SHT31;56321;47.662;8.878;2022-09-30T10:18:27;18.79;65.04
69208;SHT31;56321;47.662;8.878;2022-09-30T10:20:59;19.17;63.05
69208;SHT31;56321;47.662;8.878;2022-09-30T10:23:29;19.51;62.40
69208;SHT31;56321;47.662;8.878;2022-09-30T10:28:45;20.38;58.07
69208;SHT31;56321;47.662;8.878;2022-09-30T10:31:16;20.47;57.52
69208;SHT31;56321;47.662;8.878;2022-09-30T10:33:47;20.24;57.00
69208;SHT31;56321;47.662;8.878;2022-09-30T10:36:19;19.79;57.65
69208;SHT31;56321;47.662;8.878;2022-09-30T10:38:56;19.75;57.99
69208;SHT31;56321;47.662;8.878;2022-09-30T10:41:28;20.49;57.89
69208;SHT31;56321;47.662;8.878;2022-09-30T10:43:57;21.65;56.50
69208;SHT31;56321;47.662;8.878;2022-09-30T10:46:27;23.02;53.54
69208;SHT31;56321;47.662;8.878;2022-09-30T10:48:54;24.11;50.83
69208;SHT31;56321;47.662;8.878;2022-09-30T10:51:29;25.00;47.52
69208;SHT31;56321;47.662;8.878;2022-09-30T10:53:56;25.65;47.33
69208;SHT31;56321;47.662;8.878;2022-09-30T10:56:45;26.00;43.84
69208;SHT31;56321;47.662;8.878;2022-09-30T10:59:15;26.60;44.17
69208;SHT31;56321;47.662;8.878;2022-09-30T11:02:12;26.82;41.87
69208;SHT31;56321;47.662;8.878;2022-09-30T11:04:45;27.26;42.39
69208;SHT31;56321;47.662;8.878;2022-09-30T11:07:26;27.74;41.33
69208;SHT31;56321;47.662;8.878;2022-09-30T11:09:58;28.26;41.34
69208;SHT31;56321;47.662;8.878;2022-09-30T11:12:45;28.46;38.53
69208;SHT31;56321;47.662;8.878;2022-09-30T11:15:28;28.41;38.38
69208;SHT31;56321;47.662;8.878;2022-09-30T11:18:15;28.06;37.73
69208;SHT31;56321;47.662;8.878;2022-09-30T11:20:49;27.35;38.68
69208;SHT31;56321;47.662;8.878;2022-09-30T11:23:33;26.45;40.00
69208;SHT31;56321;47.662;8.878;2022-09-30T11:28:46;25.00;42.80
69208;SHT31;56321;47.662;8.878;2022-09-30T11:31:35;24.14;43.03
69208;SHT31;56321;47.662;8.878;2022-09-30T11:37:07;23.28;45.47
69208;SHT31;56321;47.662;8.878;2022-09-30T11:42:36;23.26;45.19
69208;SHT31;56321;47.662;8.878;2022-09-30T11:50:51;22.70;46.78
69208;SHT31;56321;47.662;8.878;2022-09-30T11:59:35;22.12;45.98
69208;SHT31;56321;47.662;8.878;2022-09-30T12:02:03;21.73;46.89
69208;SHT31;56321;47.662;8.878;2022-09-30T12:04:33;21.40;47.94
69208;SHT31;56321;47.662;8.878;2022-09-30T12:09:45;20.84;49.05
69208;SHT31;56321;47.662;8.878;2022-09-30T12:12:15;20.65;49.76
69208;SHT31;56321;47.662;8.878;2022-09-30T12:14:53;20.51;50.32
69208;SHT31;56321;47.662;8.878;2022-09-30T12:17:30;20.33;50.01
69208;SHT31;56321;47.662;8.878;2022-09-30T12:20:02;20.09;50.19
69208;SHT31;56321;47.662;8.878;2022-09-30T12:22:34;19.83;50.93
69208;SHT31;56321;47.662;8.878;2022-09-30T12:25:12;19.61;51.31
69208;SHT31;56321;47.662;8.878;2022-09-30T12:27:43;19.35;51.39
69208;SHT31;56321;47.662;8.878;2022-09-30T12:30:16;19.07;52.17
69208;SHT31;56321;47.662;8.878;2022-09-30T12:33:19;18.84;52.98
69208;SHT31;56321;47.662;8.878;2022-09-30T12:41:27;18.42;53.96
69208;SHT31;56321;47.662;8.878;2022-09-30T12:49:30;18.22;55.18
69208;SHT31;56321;47.662;8.878;2022-09-30T12:52:02;18.19;55.28
69208;SHT31;56321;47.662;8.878;2022-09-30T12:54:32;18.14;55.02
69208;SHT31;56321;47.662;8.878;2022-09-30T12:57:01;18.07;55.41
69208;SHT31;56321;47.662;8.878;2022-09-30T12:59:34;17.97;55.92
69208;SHT31;56321;47.662;8.878;2022-09-30T13:02:01;17.91;56.00
69208;SHT31;56321;47.662;8.878;2022-09-30T13:04:39;17.86;56.36
69208;SHT31;56321;47.662;8.878;2022-09-30T13:07:14;17.79;56.70
69208;SHT31;56321;47.662;8.878;2022-09-30T13:10:29;17.79;56.93
69208;SHT31;56321;47.662;8.878;2022-09-30T13:23:58;17.53;55.56
69208;SHT31;56321;47.662;8.878;2022-09-30T13:29:26;17.43;55.95
69208;SHT31;56321;47.662;8.878;2022-09-30T13:34:26;17.49;56.11
69208;SHT31;56321;47.662;8.878;2022-09-30T13:39:24;17.49;57.04
69208;SHT31;56321;47.662;8.878;2022-09-30T13:44:24;17.46;56.05
69208;SHT31;56321;47.662;8.878;2022-09-30T13:46:55;17.38;55.95
69208;SHT31;56321;47.662;8.878;2022-09-30T13:49:44;17.29;56.34
69208;SHT31;56321;47.662;8.878;2022-09-30T13:52:20;17.26;56.39
69208;SHT31;56321;47.662;8.878;2022-09-30T13:54:47;17.19;56.17
69208;SHT31;56321;47.662;8.878;2022-09-30T13:57:18;17.15;56.09
69208;SHT31;56321;47.662;8.878;2022-09-30T13:59:53;17.11;56.27
69208;SHT31;56321;47.662;8.878;2022-09-30T14:05:24;17.04;56.98
69208;SHT31;56321;47.662;8.878;2022-09-30T14:14:04;17.00;57.24
69208;SHT31;56321;47.662;8.878;2022-09-30T14:24:21;17.00;58.07
69208;SHT31;56321;47.662;8.878;2022-09-30T14:30:18;17.02;57.12
69208;SHT31;56321;47.662;8.878;2022-09-30T14:35:28;16.96;57.69
69208;SHT31;56321;47.662;8.878;2022-09-30T14:40:28;16.91;57.93
69208;SHT31;56321;47.662;8.878;2022-09-30T14:43:00;16.89;58.05
69208;SHT31;56321;47.662;8.878;2022-09-30T14:45:29;16.87;57.36
69208;SHT31;56321;47.662;8.878;2022-09-30T14:47:59;16.84;57.16
69208;SHT31;56321;47.662;8.878;2022-09-30T14:50:29;16.84;58.32
69208;SHT31;56321;47.662;8.878;2022-09-30T14:52:59;16.87;58.00
69208;SHT31;56321;47.662;8.878;2022-09-30T14:55:32;16.81;57.77
69208;SHT31;56321;47.662;8.878;2022-09-30T15:01:09;16.78;58.55
69208;SHT31;56321;47.662;8.878;2022-09-30T15:03:38;16.81;58.56
69208;SHT31;56321;47.662;8.878;2022-09-30T15:06:05;16.83;57.98
69208;SHT31;56321;47.662;8.878;2022-09-30T15:08:40;16.78;58.08
69208;SHT31;56321;47.662;8.878;2022-09-30T15:11:05;16.74;57.75
69208;SHT31;56321;47.662;8.878;2022-09-30T15:13:31;16.64;57.87
69208;SHT31;56321;47.662;8.878;2022-09-30T15:15:57;16.59;57.97
69208;SHT31;56321;47.662;8.878;2022-09-30T15:20:57;16.46;58.16
69208;SHT31;56321;47.662;8.878;2022-09-30T15:23:32;16.45;58.56
69208;SHT31;56321;47.662;8.878;2022-09-30T15:25:59;16.45;58.71
69208;SHT31;56321;47.662;8.878;2022-09-30T15:28:25;16.40;58.67
69208;SHT31;56321;47.662;8.878;2022-09-30T15:30:51;16.37;59.12
69208;SHT31;56321;47.662;8.878;2022-09-30T15:33:20;16.27;59.18
69208;SHT31;56321;47.662;8.878;2022-09-30T15:35:48;16.20;59.41
69208;SHT31;56321;47.662;8.878;2022-09-30T15:38:22;16.12;60.16
69208;SHT31;56321;47.662;8.878;2022-09-30T15:40:59;16.06;59.95
69208;SHT31;56321;47.662;8.878;2022-09-30T15:43:43;16.01;60.00
69208;SHT31;56321;47.662;8.878;2022-09-30T15:46:23;15.89;59.95
69208;SHT31;56321;47.662;8.878;2022-09-30T15:49:02;15.82;60.49
69208;SHT31;56321;47.662;8.878;2022-09-30T15:51:29;15.74;60.18
69208;SHT31;56321;47.662;8.878;2022-09-30T15:53:56;15.67;60.00
69208;SHT31;56321;47.662;8.878;2022-09-30T15:56:31;15.61;60.22
69208;SHT31;56321;47.662;8.878;2022-09-30T15:59:07;15.55;60.80
69208;SHT31;56321;47.662;8.878;2022-09-30T16:01:43;15.51;61.18
69208;SHT31;56321;47.662;8.878;2022-09-30T16:09:29;15.37;61.12
69208;SHT31;56321;47.662;8.878;2022-09-30T16:17:24;15.24;62.27
69208;SHT31;56321;47.662;8.878;2022-09-30T16:19:56;15.24;62.91
69208;SHT31;56321;47.662;8.878;2022-09-30T16:22:57;15.20;63.45
69208;SHT31;56321;47.662;8.878;2022-09-30T16:25:30;15.18;63.54
69208;SHT31;56321;47.662;8.878;2022-09-30T16:27:59;15.16;63.90
69208;SHT31;56321;47.662;8.878;2022-09-30T16:30:25;15.14;63.52
69208;SHT31;56321;47.662;8.878;2022-09-30T16:32:54;15.12;63.92
69208;SHT31;56321;47.662;8.878;2022-09-30T16:35:23;15.07;64.26
69208;SHT31;56321;47.662;8.878;2022-09-30T16:37:50;15.02;64.50
69208;SHT31;56321;47.662;8.878;2022-09-30T16:40:23;14.96;64.20
69208;SHT31;56321;47.662;8.878;2022-09-30T16:42:50;14.91;64.22
69208;SHT31;56321;47.662;8.878;2022-09-30T16:45:19;14.88;64.67
69208;SHT31;56321;47.662;8.878;2022-09-30T16:47:45;14.82;65.31
69208;SHT31;56321;47.662;8.878;2022-09-30T16:50:46;14.74;66.12
69208;SHT31;56321;47.662;8.878;2022-09-30T16:53:13;14.64;66.01
69208;SHT31;56321;47.662;8.878;2022-09-30T16:55:38;14.57;66.31
69208;SHT31;56321;47.662;8.878;2022-09-30T16:58:04;14.48;66.50
69208;SHT31;56321;47.662;8.878;2022-09-30T17:00:30;14.42;66.55
69208;SHT31;56321;47.662;8.878;2022-09-30T17:02:56;14.36;66.75
69208;SHT31;56321;47.662;8.878;2022-09-30T17:05:23;14.27;66.94
69208;SHT31;56321;47.662;8.878;2022-09-30T17:07:56;14.18;67.20
69208;SHT31;56321;47.662;8.878;2022-09-30T17:10:26;14.12;67.12
69208;SHT31;56321;47.662;8.878;2022-09-30T17:12:54;14.02;67.18
69208;SHT31;56321;47.662;8.878;2022-09-30T17:15:20;13.95;67.39
69208;SHT31;56321;47.662;8.878;2022-09-30T17:17:46;13.85;67.42
69208;SHT31;56321;47.662;8.878;2022-09-30T17:20:11;13.78;67.62
69208;SHT31;56321;47.662;8.878;2022-09-30T17:22:37;13.69;67.70
69208;SHT31;56321;47.662;8.878;2022-09-30T17:25:03;13.65;67.91
69208;SHT31;56321;47.662;8.878;2022-09-30T17:27:28;13.58;68.09
69208;SHT31;56321;47.662;8.878;2022-09-30T17:29:54;13.57;68.26
69208;SHT31;56321;47.662;8.878;2022-09-30T17:32:19;13.55;68.38
69208;SHT31;56321;47.662;8.878;2022-09-30T17:34:45;13.51;68.40
69208;SHT31;56321;47.662;8.878;2022-09-30T17:37:10;13.48;68.43
69208;SHT31;56321;47.662;8.878;2022-09-30T17:39:38;13.48;68.50
69208;SHT31;56321;47.662;8.878;2022-09-30T17:42:03;13.42;68.57
69208;SHT31;56321;47.662;8.878;2022-09-30T17:44:47;13.40;68.63
69208;SHT31;56321;47.662;8.878;2022-09-30T17:47:13;13.38;68.79
69208;SHT31;56321;47.662;8.878;2022-09-30T17:49:38;13.35;68.90
69208;SHT31;56321;47.662;8.878;2022-09-30T17:52:03;13.31;68.97
69208;SHT31;56321;47.662;8.878;2022-09-30T17:54:29;13.31;69.10
69208;SHT31;56321;47.662;8.878;2022-09-30T17:56:55;13.31;69.18
69208;SHT31;56321;47.662;8.878;2022-09-30T17:59:22;13.32;69.27
69208;SHT31;56321;47.662;8.878;2022-09-30T18:01:51;13.31;69.52
69208;SHT31;56321;47.662;8.878;2022-09-30T18:04:17;13.27;69.54
69208;SHT31;56321;47.662;8.878;2022-09-30T18:06:43;13.23;69.61
69208;SHT31;56321;47.662;8.878;2022-09-30T18:09:09;13.20;69.62
69208;SHT31;56321;47.662;8.878;2022-09-30T18:11:35;13.15;69.72
69208;SHT31;56321;47.662;8.878;2022-09-30T18:14:00;13.10;69.77
69208;SHT31;56321;47.662;8.878;2022-09-30T18:16:27;13.07;69.81
69208;SHT31;56321;47.662;8.878;2022-09-30T18:18:59;13.06;69.80
69208;SHT31;56321;47.662;8.878;2022-09-30T18:21:25;13.02;69.81
69208;SHT31;56321;47.662;8.878;2022-09-30T18:23:51;13.03;69.86
69208;SHT31;56321;47.662;8.878;2022-09-30T18:26:17;13.02;69.79
69208;SHT31;56321;47.662;8.878;2022-09-30T18:28:42;13.00;69.83
69208;SHT31;56321;47.662;8.878;2022-09-30T18:31:08;13.00;69.82
69208;SHT31;56321;47.662;8.878;2022-09-30T18:33:34;12.99;69.84
69208;SHT31;56321;47.662;8.878;2022-09-30T18:36:00;12.97;69.85
69208;SHT31;56321;47.662;8.878;2022-09-30T18:38:26;12.94;69.97
69208;SHT31;56321;47.662;8.878;2022-09-30T18:40:52;12.92;69.92
69208;SHT31;56321;47.662;8.878;2022-09-30T18:43:19;12.90;69.92
69208;SHT31;56321;47.662;8.878;2022-09-30T18:45:54;12.87;70.03
69208;SHT31;56321;47.662;8.878;2022-09-30T18:48:21;12.86;70.07
69208;SHT31;56321;47.662;8.878;2022-09-30T18:50:47;12.83;70.20
69208;SHT31;56321;47.662;8.878;2022-09-30T18:53:19;12.86;70.28
69208;SHT31;56321;47.662;8.878;2022-09-30T18:55:44;12.86;70.27
69208;SHT31;56321;47.662;8.878;2022-09-30T18:58:10;12.84;70.38
69208;SHT31;56321;47.662;8.878;2022-09-30T19:00:35;12.87;70.43
69208;SHT31;56321;47.662;8.878;2022-09-30T19:03:01;12.86;70.38
69208;SHT31;56321;47.662;8.878;2022-09-30T19:05:27;12.89;70.48